»·PEaware :: N698J KTOA-KVNY

N698J :: KTOA-KVNY

FLIGHT INFORMATION

Flight Status: Arrived
Operator: Privately registered:
United States
More flights under this callsign
Pilot: Ahmad S. (5672)
Aircraft: BEECH AIRCRAFT BARON
(BE58)
More flights by this aircraft type
Origin: KTOA Zamperini
United States
Destination: KVNY Van Nuys
United States
More flights between these airports :: More routes between these airports
Route: LAX170 LIMBO V64 SMO125 SMO SMO 317 CANOG
File this flight plan on PilotEdge
Remarks: Scenario 1
Altitude:
(Current/Filed)
4,000ft
Speed:
(Current/Filed)
150kts
Departed: 14-Feb-20 05:47 AM
Arrived: 14-Feb-20 06:44 AM
Distance/Time
Traveled:
30nm/0:56
Distance/Time
To Go:
Arrived

Flight Plot

Page will automatically refresh every two minutes.

Flight plan parsing failed; only flown route is shown


Map Options




Map Legend


Flown Route
Filed Route
Departure Airport
Arrival Airport
Navaid (VOR, NDB)
Fix

Horizontal Profiles

Position Reports

Time Latitude Longitude Heading Altitude Ground
Speed
14-Feb-20 05:28 33.803402 -118.345170 218 106ft 0kts
14-Feb-20 05:29 33.803402 -118.345170 218 106ft 0kts
14-Feb-20 05:30 33.803402 -118.345170 218 106ft 0kts
14-Feb-20 05:31 33.803402 -118.345170 218 106ft 0kts
14-Feb-20 05:32 33.803402 -118.345170 218 106ft 0kts
14-Feb-20 05:33 33.803402 -118.345170 218 106ft 0kts
14-Feb-20 05:34 33.803402 -118.345170 218 106ft 0kts
14-Feb-20 05:35 33.803402 -118.345170 218 106ft 0kts
14-Feb-20 05:36 33.803402 -118.345170 218 106ft 0kts
14-Feb-20 05:37 33.803402 -118.345170 218 106ft 0kts
14-Feb-20 05:38 33.803402 -118.345170 218 106ft 0kts
14-Feb-20 05:39 33.803402 -118.345170 218 106ft 0kts
14-Feb-20 05:40 33.803402 -118.345170 218 106ft 0kts
14-Feb-20 05:41 33.803402 -118.345170 218 106ft 0kts
14-Feb-20 05:42 33.803487 -118.344908 11 106ft 5kts
14-Feb-20 05:43 33.800967 -118.340675 129 106ft 36kts
14-Feb-20 05:44 33.798040 -118.334486 38 106ft 20kts
14-Feb-20 05:45 33.799735 -118.333093 308 106ft 0kts
14-Feb-20 05:46 33.809324 -118.347579 307 462ft 114kts
14-Feb-20 05:47 33.833252 -118.384633 307 1510ft 155kts
14-Feb-20 05:48 33.844661 -118.431844 232 2516ft 162kts
14-Feb-20 05:49 33.803628 -118.445129 177 3547ft 158kts
14-Feb-20 05:50 33.758557 -118.448408 193 4002ft 180kts
14-Feb-20 05:51 33.739487 -118.406050 67 4009ft 183kts
14-Feb-20 05:52 33.758682 -118.348172 75 4002ft 190kts
14-Feb-20 05:53 33.767325 -118.285182 81 4000ft 192kts
14-Feb-20 05:54 33.777032 -118.223046 48 3997ft 191kts
14-Feb-20 05:55 33.816610 -118.242987 291 4012ft 193kts
14-Feb-20 05:56 33.845320 -118.297045 317 4004ft 193kts
14-Feb-20 05:57 33.889410 -118.334049 324 4004ft 193kts
14-Feb-20 05:58 33.930446 -118.376341 318 3998ft 194kts
14-Feb-20 05:59 33.971953 -118.417949 319 3995ft 194kts
14-Feb-20 06:00 34.014125 -118.458219 330 3996ft 193kts
14-Feb-20 06:01 34.061786 -118.488899 331 3994ft 193kts
14-Feb-20 06:02 34.109191 -118.519741 331 3991ft 193kts
14-Feb-20 06:03 34.156523 -118.550704 331 3988ft 193kts
14-Feb-20 06:04 34.204121 -118.581378 331 3986ft 193kts
14-Feb-20 06:05 34.253898 -118.593293 357 4561ft 171kts
14-Feb-20 06:06 34.301936 -118.595643 357 4992ft 181kts
14-Feb-20 06:07 34.353842 -118.598184 357 5003ft 189kts
14-Feb-20 06:08 34.406753 -118.600759 357 5006ft 191kts
14-Feb-20 06:09 34.460059 -118.603314 357 5017ft 191kts
14-Feb-20 06:10 34.510497 -118.594616 52 5021ft 190kts
14-Feb-20 06:11 34.516839 -118.532701 117 5020ft 190kts
14-Feb-20 06:12 34.468735 -118.511188 175 5021ft 190kts
14-Feb-20 06:13 34.415696 -118.510135 178 5016ft 191kts
14-Feb-20 06:14 34.367655 -118.505834 173 4844ft 150kts
14-Feb-20 06:15 34.328393 -118.501325 175 3830ft 135kts
14-Feb-20 06:16 34.294731 -118.498430 175 2782ft 112kts
14-Feb-20 06:17 34.264959 -118.495645 175 2089ft 105kts
14-Feb-20 06:18 34.235136 -118.492717 175 1384ft 109kts
14-Feb-20 06:19 34.202679 -118.489831 175 1481ft 138kts
14-Feb-20 06:20 34.158211 -118.480454 142 1978ft 177kts
14-Feb-20 06:21 34.116045 -118.462081 170 2937ft 154kts
14-Feb-20 06:22 34.075326 -118.460957 181 3907ft 141kts
14-Feb-20 06:23 34.039596 -118.471691 243 4609ft 149kts
14-Feb-20 06:24 34.026441 -118.527573 255 4613ft 187kts
14-Feb-20 06:25 34.024031 -118.590836 280 4608ft 192kts
14-Feb-20 06:26 34.042269 -118.651453 292 4606ft 193kts
14-Feb-20 06:27 34.055787 -118.714018 279 4605ft 193kts
14-Feb-20 06:28 34.065147 -118.777769 279 4604ft 193kts
14-Feb-20 06:29 34.074488 -118.841717 280 4606ft 193kts
14-Feb-20 06:30 34.097507 -118.894629 349 4608ft 191kts
14-Feb-20 06:31 34.150245 -118.886106 32 4147ft 186kts
14-Feb-20 06:33 34.183416 -118.842721 60 3711ft 166kts
14-Feb-20 06:34 34.201253 -118.794645 67 3705ft 151kts
14-Feb-20 06:35 34.209629 -118.743787 89 3453ft 176kts
14-Feb-20 06:36 34.203591 -118.687542 99 3396ft 153kts
14-Feb-20 06:37 34.199335 -118.638665 90 3401ft 142kts
14-Feb-20 06:38 34.199341 -118.591044 89 3044ft 143kts
14-Feb-20 06:39 34.199448 -118.542365 89 2369ft 144kts
14-Feb-20 06:40 34.219886 -118.515440 321 1863ft 138kts
14-Feb-20 06:41 34.203125 -118.535930 174 1813ft 122kts
14-Feb-20 06:42 34.180136 -118.516128 113 1381ft 106kts
14-Feb-20 06:43 34.190532 -118.490682 26 995ft 91kts
14-Feb-20 06:44 34.211411 -118.489249 355 805ft 34kts
14-Feb-20 06:45 34.210482 -118.491639 176 805ft 16kts
14-Feb-20 06:46 34.206408 -118.490747 82 805ft 0kts
14-Feb-20 06:47 34.206408 -118.490744 82 805ft 0kts
14-Feb-20 06:48 34.206408 -118.490742 82 805ft 0kts
14-Feb-20 06:49 34.206409 -118.490739 82 805ft 0kts
14-Feb-20 06:50 34.215646 -118.490868 355 962ft 97kts
14-Feb-20 06:51 34.247670 -118.501926 320 1970ft 143kts
14-Feb-20 06:51 34.274414 -118.529208 310 2887ft 154kts
14-Feb-20 06:53 34.274982 -118.587303 264 4339ft 145kts
14-Feb-20 06:54 34.271690 -118.634102 264 5653ft 136kts
14-Feb-20 06:54 34.269098 -118.671568 264 6637ft 132kts
14-Feb-20 06:56 34.247719 -118.702563 183 7958ft 117kts
14-Feb-20 06:56 34.220800 -118.705122 183 8778ft 114kts
14-Feb-20 06:57 34.190142 -118.707952 183 9711ft 107kts

Navigation Log

Ident Type
Flight plan parsing failed, navigation log unavailable